Time;durP1;ratioP1;P1;durP2;ratioP2;P2;SDS_P1;SDS_P2;PMS_P1;PMS_P2;Temp;Humidity;BMP_temperature;BMP_pressure;BME280_temperature;BME280_humidity;BME280_pressure;Samples;Min_cycle;Max_cycle;Signal;HPM_P1;HPM_P2
2022/10/21 00:02:11;;;;;;;39.50;25.85;;;11.30;99.90;;;;;;5061256;28;20040;-56
2022/10/21 00:04:37;;;;;;;33.15;24.50;;;11.30;99.90;;;;;;5066587;28;20033;-51
2022/10/21 00:07:02;;;;;;;39.55;25.65;;;11.30;99.90;;;;;;5060090;28;20037;-52
2022/10/21 00:09:28;;;;;;;39.42;25.92;;;11.30;99.90;;;;;;5063024;28;20116;-54
2022/10/21 00:11:54;;;;;;;41.55;26.42;;;11.30;99.90;;;;;;5060018;28;20070;-54
2022/10/21 00:14:19;;;;;;;44.13;26.40;;;11.20;99.90;;;;;;5060334;28;20428;-55
2022/10/21 00:16:45;;;;;;;37.05;25.80;;;11.30;99.90;;;;;;5063883;28;20048;-51
2022/10/21 00:19:11;;;;;;;42.80;27.67;;;11.20;99.90;;;;;;5064947;28;20040;-54
2022/10/21 00:21:36;;;;;;;43.13;26.80;;;11.30;99.90;;;;;;5059789;28;20036;-52
2022/10/21 00:24:02;;;;;;;49.55;27.92;;;11.20;99.90;;;;;;5062434;28;20090;-53
2022/10/21 00:26:28;;;;;;;38.00;26.02;;;11.20;99.90;;;;;;5062947;28;20083;-56
2022/10/21 00:28:57;;;;;;;39.28;26.50;;;11.20;99.90;;;;;;5063225;28;20068;-55
2022/10/21 00:31:23;;;;;;;35.25;23.77;;;11.10;99.90;;;;;;5063856;28;20238;-53
2022/10/21 00:33:49;;;;;;;38.65;25.42;;;11.20;99.90;;;;;;5059282;28;20142;-54
2022/10/21 00:36:15;;;;;;;34.72;24.67;;;11.20;99.90;;;;;;5061703;28;20747;-56
2022/10/21 00:38:43;;;;;;;35.78;24.55;;;11.10;99.90;;;;;;5059961;28;20063;-53
2022/10/21 00:41:09;;;;;;;37.97;25.73;;;11.10;99.90;;;;;;5066632;28;20036;-54
2022/10/21 00:44:07;;;;;;;40.35;26.38;;;11.10;99.90;;;;;;5063733;28;20524;-55
2022/10/21 00:46:36;;;;;;;36.80;25.92;;;11.20;99.90;;;;;;5061169;28;20044;-55
2022/10/21 00:49:25;;;;;;;39.08;26.55;;;11.20;99.90;;;;;;5058736;28;20051;-55
2022/10/21 00:51:54;;;;;;;43.15;26.08;;;11.10;99.90;;;;;;5060071;28;20040;-55
2022/10/21 00:54:22;;;;;;;37.92;24.75;;;11.10;99.90;;;;;;5058493;28;20040;-54
2022/10/21 00:56:50;;;;;;;36.30;27.15;;;11.10;99.90;;;;;;5060730;28;20048;-55
2022/10/21 00:59:16;;;;;;;41.53;25.67;;;11.20;99.90;;;;;;5056012;28;20053;-54
2022/10/21 01:01:42;;;;;;;41.75;26.52;;;11.10;99.90;;;;;;5061370;28;20434;-52
2022/10/21 01:04:07;;;;;;;44.05;26.45;;;11.20;99.90;;;;;;5065930;28;20047;-55
2022/10/21 01:06:34;;;;;;;38.22;26.88;;;11.10;99.90;;;;;;5062201;28;20340;-51
2022/10/21 01:09:00;;;;;;;37.47;25.70;;;11.20;99.90;;;;;;5068294;28;20059;-53
2022/10/21 01:11:28;;;;;;;39.17;25.80;;;11.10;99.90;;;;;;5068120;28;20048;-55
2022/10/21 01:14:12;;;;;;;;;;;11.10;99.90;;;;;;5067523;28;20076;-56
2022/10/21 01:16:40;;;;;;;38.63;27.00;;;11.20;99.90;;;;;;5070180;28;19920;-56
2022/10/21 01:19:38;;;;;;;43.22;27.85;;;11.20;99.90;;;;;;5070410;28;20040;-56
2022/10/21 01:22:26;;;;;;;41.70;27.30;;;11.20;99.90;;;;;;5067075;28;20055;-54
2022/10/21 01:25:11;;;;;;;;;;;11.30;99.90;;;;;;5069293;28;20549;-55
2022/10/21 01:28:24;;;;;;;38.58;27.20;;;11.40;99.90;;;;;;5066311;28;20014;-54
2022/10/21 01:31:00;;;;;;;41.95;27.15;;;11.40;99.90;;;;;;5054561;28;20535;-52
2022/10/21 01:33:46;;;;;;;35.58;24.58;;;11.40;99.90;;;;;;5065885;28;20066;-54
2022/10/21 01:36:15;;;;;;;43.78;26.77;;;11.40;99.90;;;;;;5068183;28;20036;-53
2022/10/21 01:38:46;;;;;;;36.00;27.08;;;11.50;99.90;;;;;;5063654;28;20060;-55
2022/10/21 01:41:30;;;;;;;39.22;27.20;;;11.40;99.90;;;;;;5068118;28;20128;-55
2022/10/21 01:44:18;;;;;;;38.53;26.35;;;11.40;99.90;;;;;;5065921;28;20147;-51
2022/10/21 01:47:11;;;;;;;38.00;27.08;;;11.50;99.90;;;;;;5069597;28;20177;-55
2022/10/21 01:49:50;;;;;;;39.47;26.45;;;11.50;99.90;;;;;;5064896;28;20056;-55
2022/10/21 01:52:16;;;;;;;44.78;29.02;;;11.50;99.90;;;;;;5063997;28;20390;-55
2022/10/21 01:54:52;;;;;;;43.35;27.52;;;11.60;99.90;;;;;;5063045;28;20044;-54
2022/10/21 01:57:21;;;;;;;43.90;27.33;;;11.60;99.90;;;;;;5057046;28;20188;-56
2022/10/21 01:59:48;;;;;;;52.58;27.73;;;11.70;99.90;;;;;;5063871;28;20037;-55
2022/10/21 02:02:15;;;;;;;41.33;27.38;;;11.70;99.90;;;;;;5063953;28;20033;-56
2022/10/21 02:04:43;;;;;;;40.40;27.00;;;11.60;99.90;;;;;;5065256;28;21512;-57
2022/10/21 02:07:09;;;;;;;41.13;27.67;;;11.70;99.90;;;;;;5064723;28;20033;-56
2022/10/21 02:09:35;;;;;;;41.70;26.73;;;11.80;99.90;;;;;;5058161;28;20569;-55
2022/10/21 02:12:03;;;;;;;43.28;28.05;;;11.90;99.90;;;;;;5064895;28;20120;-55
2022/10/21 02:14:37;;;;;;;39.53;26.70;;;12.00;99.90;;;;;;5063430;28;20093;-55
2022/10/21 02:17:05;;;;;;;41.33;26.42;;;12.10;99.90;;;;;;5063179;28;20052;-55
2022/10/21 02:19:31;;;;;;;44.65;28.30;;;12.20;99.90;;;;;;5060714;28;20097;-54
2022/10/21 02:21:59;;;;;;;43.42;26.80;;;12.20;99.90;;;;;;5058291;28;20044;-56
2022/10/21 02:24:41;;;;;;;46.65;26.85;;;12.30;99.90;;;;;;5056976;28;20058;-56
2022/10/21 02:27:07;;;;;;;49.90;27.35;;;12.40;99.90;;;;;;5061774;28;20052;-55
2022/10/21 02:29:36;;;;;;;40.92;25.15;;;12.60;99.90;;;;;;5057984;28;20029;-57
2022/10/21 02:32:08;;;;;;;48.35;25.65;;;12.70;99.90;;;;;;5058136;28;20044;-55
2022/10/21 02:34:40;;;;;;;44.63;24.48;;;12.70;99.90;;;;;;5057853;28;20040;-55
2022/10/21 02:37:27;;;;;;;44.20;24.98;;;12.90;99.90;;;;;;5057733;28;20596;-56
2022/10/21 02:40:02;;;;;;;42.42;25.35;;;13.00;99.90;;;;;;5042451;28;20443;-53
2022/10/21 02:42:33;;;;;;;41.17;23.55;;;13.00;99.90;;;;;;5055666;28;20129;-54
2022/10/21 02:45:03;;;;;;;39.60;22.73;;;13.20;99.90;;;;;;5055906;28;20043;-52
2022/10/21 02:47:28;;;;;;;40.40;24.05;;;13.20;99.90;;;;;;5055941;28;20040;-55
2022/10/21 02:49:54;;;;;;;40.90;24.23;;;13.30;99.90;;;;;;5054625;28;20544;-57
2022/10/21 02:52:20;;;;;;;37.35;22.85;;;13.50;99.90;;;;;;5056918;28;20048;-51
2022/10/21 02:54:45;;;;;;;42.83;23.90;;;13.50;99.90;;;;;;5052281;28;20124;-54
2022/10/21 02:57:11;;;;;;;36.97;22.67;;;13.40;99.90;;;;;;5060125;28;20174;-53
2022/10/21 02:59:37;;;;;;;38.30;22.63;;;13.40;99.90;;;;;;5057686;28;20048;-55
2022/10/21 03:02:03;;;;;;;39.42;23.45;;;13.40;99.90;;;;;;5051220;28;20384;-57
2022/10/21 03:04:28;;;;;;;35.28;23.00;;;13.30;99.90;;;;;;5058809;28;20036;-54
2022/10/21 03:06:54;;;;;;;36.65;21.40;;;13.30;99.90;;;;;;5056487;28;20040;-56
2022/10/21 03:09:20;;;;;;;32.90;20.80;;;13.40;99.90;;;;;;5058212;28;20056;-54
2022/10/21 03:11:45;;;;;;;37.72;21.13;;;13.30;99.90;;;;;;5056392;28;20086;-54
2022/10/21 03:14:11;;;;;;;38.58;21.25;;;13.20;99.90;;;;;;5055297;28;20048;-57
2022/10/21 03:16:36;;;;;;;32.65;19.60;;;13.10;99.90;;;;;;5053338;28;20131;-54
2022/10/21 03:19:02;;;;;;;38.20;21.20;;;13.20;99.90;;;;;;5057591;28;20470;-54
2022/10/21 03:21:28;;;;;;;37.05;20.10;;;13.10;99.90;;;;;;5057692;28;20123;-54
2022/10/21 03:23:54;;;;;;;41.55;22.13;;;13.00;99.90;;;;;;5060979;28;20063;-55
2022/10/21 03:26:19;;;;;;;37.65;21.23;;;13.00;99.90;;;;;;5057991;28;20293;-52
2022/10/21 03:28:45;;;;;;;37.00;21.90;;;13.00;99.90;;;;;;5059547;28;20136;-54
2022/10/21 03:31:10;;;;;;;35.03;21.23;;;13.00;99.90;;;;;;5059472;28;20044;-53
2022/10/21 03:33:36;;;;;;;30.92;19.92;;;12.80;99.90;;;;;;5059211;28;20025;-53
2022/10/21 03:36:02;;;;;;;42.25;22.48;;;12.80;99.90;;;;;;5053751;28;20033;-54
2022/10/21 03:38:29;;;;;;;43.70;22.15;;;12.70;99.90;;;;;;5057331;28;20033;-53
2022/10/21 03:40:54;;;;;;;39.45;21.25;;;12.70;99.90;;;;;;5056101;28;20267;-54
2022/10/21 03:43:20;;;;;;;40.60;22.80;;;12.70;99.90;;;;;;5053280;28;20252;-51
2022/10/21 03:45:46;;;;;;;48.95;24.88;;;12.60;99.90;;;;;;5054131;28;20041;-49
2022/10/21 03:48:12;;;;;;;52.38;23.58;;;12.60;99.90;;;;;;5054703;28;20032;-49
2022/10/21 03:50:37;;;;;;;45.60;24.17;;;12.70;99.90;;;;;;5051816;28;20126;-55
2022/10/21 03:53:03;;;;;;;47.70;25.88;;;12.70;99.90;;;;;;5054256;28;20048;-54
2022/10/21 03:55:29;;;;;;;47.55;26.17;;;12.80;99.90;;;;;;5059085;28;20675;-54
2022/10/21 03:57:54;;;;;;;38.03;24.02;;;12.60;99.90;;;;;;5055770;28;20182;-53
2022/10/21 04:00:20;;;;;;;34.28;23.55;;;12.60;99.90;;;;;;5055424;28;20471;-54
2022/10/21 04:02:46;;;;;;;39.72;23.85;;;12.60;99.90;;;;;;5051863;28;20506;-57
2022/10/21 04:05:12;;;;;;;35.17;23.00;;;12.60;99.90;;;;;;5054568;28;20037;-54
2022/10/21 04:07:38;;;;;;;42.70;23.58;;;12.40;99.90;;;;;;5062896;28;20043;-53
2022/10/21 04:10:04;;;;;;;43.08;23.70;;;12.40;99.90;;;;;;5060022;28;20045;-54
2022/10/21 04:12:30;;;;;;;39.78;23.67;;;12.30;99.90;;;;;;5060576;28;20395;-51
2022/10/21 04:14:56;;;;;;;29.85;22.35;;;12.20;99.90;;;;;;5058042;28;20037;-52
2022/10/21 04:17:21;;;;;;;33.20;23.38;;;12.10;99.90;;;;;;5059367;28;20045;-51
2022/10/21 04:19:47;;;;;;;38.88;23.80;;;12.00;99.90;;;;;;5059423;28;20040;-52
2022/10/21 04:22:12;;;;;;;37.13;23.75;;;12.00;99.90;;;;;;5062235;28;20043;-53
2022/10/21 04:24:38;;;;;;;37.35;22.50;;;12.00;99.90;;;;;;5060663;28;20048;-54
2022/10/21 04:27:04;;;;;;;33.35;22.38;;;11.80;99.90;;;;;;5062401;28;20045;-56
2022/10/21 04:29:29;;;;;;;44.95;24.85;;;11.90;99.90;;;;;;5060783;28;20041;-55
2022/10/21 04:31:55;;;;;;;33.97;21.70;;;11.80;99.90;;;;;;5053864;28;20632;-52
2022/10/21 04:34:21;;;;;;;42.15;24.02;;;11.80;99.90;;;;;;5065100;28;20041;-52
2022/10/21 04:36:46;;;;;;;37.95;22.00;;;11.70;99.90;;;;;;5062659;28;20047;-52
2022/10/21 04:39:12;;;;;;;39.63;23.42;;;11.70;99.90;;;;;;5066257;28;20098;-51
2022/10/21 04:41:37;;;;;;;37.33;23.75;;;11.70;99.90;;;;;;5063165;28;20041;-52
2022/10/21 04:44:03;;;;;;;38.92;24.02;;;11.60;99.90;;;;;;5064451;28;20097;-52
2022/10/21 04:46:29;;;;;;;34.78;23.25;;;11.60;99.90;;;;;;5061404;28;20068;-57
2022/10/21 04:48:55;;;;;;;35.00;22.92;;;11.60;99.90;;;;;;5062414;28;20044;-56
2022/10/21 04:51:20;;;;;;;37.75;22.40;;;11.50;99.90;;;;;;5064667;28;20056;-53
2022/10/21 04:53:46;;;;;;;43.67;24.48;;;11.50;99.90;;;;;;5059123;28;20461;-51
2022/10/21 04:56:11;;;;;;;36.22;23.60;;;11.30;99.90;;;;;;5061758;28;20040;-54
2022/10/21 04:58:37;;;;;;;46.63;25.90;;;11.30;99.90;;;;;;5058783;28;20033;-55
2022/10/21 05:01:03;;;;;;;47.55;25.73;;;11.40;99.90;;;;;;5066573;28;20224;-52
2022/10/21 05:03:29;;;;;;;44.95;25.70;;;11.30;99.90;;;;;;5060793;28;20068;-56
2022/10/21 05:05:54;;;;;;;47.13;25.70;;;11.30;99.90;;;;;;5063851;28;20045;-53
2022/10/21 05:08:21;;;;;;;45.55;24.92;;;11.20;99.90;;;;;;5064429;28;20501;-56
2022/10/21 05:10:47;;;;;;;37.85;22.63;;;11.30;99.90;;;;;;5063707;28;20129;-55
2022/10/21 05:13:13;;;;;;;43.92;25.27;;;11.20;99.90;;;;;;5065079;28;20040;-53
2022/10/21 05:15:38;;;;;;;37.08;24.38;;;11.20;99.90;;;;;;5063957;28;20419;-56
2022/10/21 05:18:04;;;;;;;50.15;25.70;;;11.30;99.90;;;;;;5060965;28;20036;-54
2022/10/21 05:20:29;;;;;;;36.28;23.35;;;11.20;99.90;;;;;;5058525;28;20040;-54
2022/10/21 05:22:55;;;;;;;46.40;25.55;;;11.20;99.90;;;;;;5058969;28;20036;-52
2022/10/21 05:25:21;;;;;;;35.95;23.73;;;11.20;99.90;;;;;;5061143;28;20437;-52
2022/10/21 05:27:47;;;;;;;35.65;23.92;;;11.20;99.90;;;;;;5061070;28;20445;-56
2022/10/21 05:30:14;;;;;;;44.78;24.23;;;11.10;99.90;;;;;;5061579;28;20053;-54
2022/10/21 05:32:40;;;;;;;41.05;24.00;;;11.10;99.90;;;;;;5062602;28;20505;-52
2022/10/21 05:35:06;;;;;;;38.15;23.38;;;11.00;99.90;;;;;;5061012;28;20063;-52
2022/10/21 05:37:32;;;;;;;32.63;22.20;;;11.00;99.90;;;;;;5058645;28;20037;-54
2022/10/21 05:39:57;;;;;;;43.42;24.42;;;10.90;99.90;;;;;;5059936;28;20405;-54
2022/10/21 05:42:23;;;;;;;50.75;24.50;;;11.00;99.90;;;;;;5063841;28;20036;-53
2022/10/21 05:44:49;;;;;;;45.25;24.88;;;10.90;99.90;;;;;;5060789;28;20094;-53
2022/10/21 05:47:14;;;;;;;40.65;23.77;;;10.90;99.90;;;;;;5059626;28;20140;-54
2022/10/21 05:49:40;;;;;;;41.95;24.00;;;10.80;99.90;;;;;;5052403;28;20163;-52
2022/10/21 05:52:05;;;;;;;51.58;26.15;;;10.80;99.90;;;;;;5053522;28;20040;-53
2022/10/21 05:54:31;;;;;;;38.28;23.58;;;10.80;99.90;;;;;;5056428;28;20453;-52
2022/10/21 05:56:57;;;;;;;38.35;23.45;;;10.70;99.90;;;;;;5060758;28;20421;-52
2022/10/21 05:59:24;;;;;;;44.15;24.88;;;10.70;99.90;;;;;;5058980;28;20048;-54
2022/10/21 06:01:50;;;;;;;41.37;24.57;;;10.70;99.90;;;;;;5061465;28;20084;-53
2022/10/21 06:04:15;;;;;;;40.28;24.27;;;10.70;99.90;;;;;;5059056;28;20068;-53
2022/10/21 06:06:41;;;;;;;36.28;23.20;;;10.80;99.90;;;;;;5060747;28;20516;-53
2022/10/21 06:09:07;;;;;;;51.15;25.75;;;10.80;99.90;;;;;;5058103;28;20037;-54
2022/10/21 06:11:32;;;;;;;34.80;22.88;;;10.80;99.90;;;;;;5062952;28;20123;-50
2022/10/21 06:13:58;;;;;;;39.40;24.70;;;10.80;99.90;;;;;;5057118;28;20470;-51
2022/10/21 06:16:24;;;;;;;43.17;25.40;;;10.80;99.90;;;;;;5055605;28;20047;-52
2022/10/21 06:18:49;;;;;;;43.22;24.52;;;10.90;99.90;;;;;;5058003;28;20695;-54
2022/10/21 06:21:15;;;;;;;48.05;25.25;;;11.00;99.90;;;;;;5059508;28;20040;-51
2022/10/21 06:23:40;;;;;;;41.33;25.25;;;11.00;99.90;;;;;;5063627;28;20119;-49
2022/10/21 06:26:14;;;;;;;43.88;23.58;;;11.00;99.90;;;;;;5056049;28;20509;-54
2022/10/21 06:28:42;;;;;;;43.22;25.23;;;11.10;99.90;;;;;;5064316;28;20112;-53
2022/10/21 06:31:11;;;;;;;44.45;25.83;;;11.10;99.90;;;;;;5058723;28;20390;-53
2022/10/21 06:33:36;;;;;;;46.55;25.55;;;11.20;99.90;;;;;;5057777;28;20041;-54
2022/10/21 06:36:03;;;;;;;38.22;24.50;;;11.20;99.90;;;;;;5059546;28;20040;-51
2022/10/21 06:38:31;;;;;;;39.13;23.20;;;11.20;99.90;;;;;;5059561;28;20068;-53
2022/10/21 06:41:01;;;;;;;35.30;22.67;;;11.30;99.90;;;;;;5063493;28;20756;-55
2022/10/21 06:43:26;;;;;;;49.67;25.33;;;11.20;99.90;;;;;;5062969;28;20410;-50
2022/10/21 06:45:52;;;;;;;41.00;24.10;;;11.20;99.90;;;;;;5058439;28;20037;-50
2022/10/21 06:48:17;;;;;;;35.55;22.08;;;11.20;99.90;;;;;;5063604;28;20040;-52
2022/10/21 06:50:43;;;;;;;36.17;21.60;;;11.20;99.90;;;;;;5055388;28;20060;-53
2022/10/21 06:53:09;;;;;;;41.60;24.20;;;11.30;99.90;;;;;;5057790;28;20216;-52
2022/10/21 06:55:34;;;;;;;31.17;21.95;;;11.40;99.90;;;;;;5059492;28;20056;-49
2022/10/21 06:58:00;;;;;;;39.25;24.08;;;11.30;99.90;;;;;;5062575;28;20470;-50
2022/10/21 07:00:26;;;;;;;53.40;26.13;;;11.40;99.90;;;;;;5058677;28;20119;-52
2022/10/21 07:02:51;;;;;;;43.70;24.35;;;11.50;99.90;;;;;;5062138;28;20041;-53
2022/10/21 07:05:17;;;;;;;35.15;23.45;;;11.60;99.90;;;;;;5057930;28;20055;-52
2022/10/21 07:07:43;;;;;;;40.03;24.80;;;11.70;99.90;;;;;;5061532;28;20048;-50
2022/10/21 07:10:08;;;;;;;42.75;26.50;;;11.80;99.90;;;;;;5062692;28;20036;-54
2022/10/21 07:12:34;;;;;;;49.03;27.95;;;11.90;99.90;;;;;;5061642;28;20105;-52
2022/10/21 07:15:00;;;;;;;54.60;28.05;;;12.00;99.90;;;;;;5064392;28;20037;-53
2022/10/21 07:17:29;;;;;;;60.40;27.73;;;12.10;99.90;;;;;;5062066;28;20056;-51
2022/10/21 07:19:54;;;;;;;53.75;28.50;;;12.30;99.90;;;;;;5064086;28;20044;-52
2022/10/21 07:22:20;;;;;;;45.22;26.25;;;12.50;99.90;;;;;;5060520;28;20058;-52
2022/10/21 07:24:45;;;;;;;41.90;25.15;;;12.40;99.90;;;;;;5059686;28;20060;-54
2022/10/21 07:27:11;;;;;;;38.25;24.75;;;12.60;99.90;;;;;;5056417;28;20037;-52
2022/10/21 07:29:37;;;;;;;39.67;22.63;;;12.70;99.90;;;;;;5059042;28;20037;-56
2022/10/21 07:32:02;;;;;;;36.72;23.25;;;12.80;99.90;;;;;;5062570;28;20060;-55
2022/10/21 07:34:28;;;;;;;38.55;23.27;;;12.90;99.90;;;;;;5054135;28;20051;-53
2022/10/21 07:36:54;;;;;;;33.20;22.05;;;13.00;99.90;;;;;;5054232;28;20068;-51
2022/10/21 07:39:25;;;;;;;32.83;22.63;;;13.10;99.90;;;;;;5033995;28;20373;-52
2022/10/21 07:41:56;;;;;;;35.47;21.95;;;13.10;99.90;;;;;;5058042;28;20040;-52
2022/10/21 07:44:23;;;;;;;31.27;22.25;;;13.20;99.90;;;;;;5065071;28;20674;-53
2022/10/21 07:46:49;;;;;;;33.25;21.45;;;13.50;99.90;;;;;;5061491;28;20769;-55
2022/10/21 07:49:18;;;;;;;28.48;21.02;;;13.60;99.90;;;;;;5064541;28;20142;-52
2022/10/21 07:51:45;;;;;;;28.48;19.92;;;13.70;99.90;;;;;;5062113;28;20061;-53
2022/10/21 07:54:12;;;;;;;24.35;18.00;;;13.90;99.90;;;;;;5059483;28;20123;-53
2022/10/21 07:56:41;;;;;;;24.65;18.23;;;14.00;99.90;;;;;;5061238;28;20044;-54
2022/10/21 07:59:07;;;;;;;22.02;17.63;;;14.10;99.90;;;;;;5059394;28;20587;-54
2022/10/21 08:01:35;;;;;;;23.52;17.70;;;14.20;99.90;;;;;;5056830;28;20414;-49
2022/10/21 08:04:01;;;;;;;21.67;15.83;;;14.40;99.90;;;;;;5066807;28;20156;-52
2022/10/21 08:06:28;;;;;;;20.65;15.45;;;14.50;99.90;;;;;;5064432;28;20041;-54
2022/10/21 08:08:57;;;;;;;20.38;15.18;;;14.70;99.90;;;;;;5060820;28;20033;-54
2022/10/21 08:11:28;;;;;;;16.98;14.05;;;14.70;99.90;;;;;;5060086;28;20087;-53
2022/10/21 08:13:54;;;;;;;17.70;14.07;;;14.70;99.90;;;;;;5060112;28;20041;-53
2022/10/21 08:16:20;;;;;;;17.85;14.00;;;14.90;99.90;;;;;;5055688;28;20041;-52
2022/10/21 08:18:46;;;;;;;20.10;14.13;;;15.00;99.90;;;;;;5058820;28;20040;-51
2022/10/21 08:21:12;;;;;;;18.27;13.35;;;15.10;99.90;;;;;;5058306;28;20094;-55
2022/10/21 08:23:37;;;;;;;18.27;13.82;;;15.00;99.90;;;;;;5064516;28;20417;-52
2022/10/21 08:26:04;;;;;;;19.63;12.23;;;15.00;99.90;;;;;;5061793;28;20044;-52
2022/10/21 08:28:30;;;;;;;18.38;12.65;;;15.00;99.90;;;;;;5056187;28;20052;-53
2022/10/21 08:31:08;;;;;;;12.25;10.95;;;15.10;99.90;;;;;;5053088;28;20033;-54
2022/10/21 08:33:34;;;;;;;14.45;11.77;;;15.00;99.90;;;;;;5055146;28;20051;-52
2022/10/21 08:36:08;;;;;;;12.63;11.32;;;15.10;99.90;;;;;;5064843;28;20043;-49
2022/10/21 08:38:33;;;;;;;13.50;11.73;;;15.00;99.90;;;;;;5060654;28;20044;-50
2022/10/21 08:41:00;;;;;;;16.15;11.13;;;15.10;99.90;;;;;;5061709;28;20040;-54
2022/10/21 08:43:30;;;;;;;14.75;10.98;;;15.00;99.90;;;;;;5064084;28;20102;-53
2022/10/21 08:46:01;;;;;;;16.70;11.65;;;15.00;99.90;;;;;;5065404;28;20052;-53
2022/10/21 08:48:35;;;;;;;15.57;10.90;;;15.10;99.90;;;;;;5064537;28;20047;-53
2022/10/21 08:51:04;;;;;;;14.50;10.77;;;15.10;99.90;;;;;;5065429;28;20387;-52
2022/10/21 08:53:43;;;;;;;13.80;11.63;;;15.10;99.90;;;;;;5061065;28;20045;-52
2022/10/21 08:56:13;;;;;;;13.57;11.40;;;15.20;99.90;;;;;;5067745;28;20058;-53
2022/10/21 08:58:39;;;;;;;13.40;12.00;;;15.30;99.90;;;;;;5070853;28;20078;-51
2022/10/21 09:01:32;;;;;;;14.82;11.60;;;15.30;99.90;;;;;;5060941;28;21403;-55
2022/10/21 09:04:24;;;;;;;16.35;11.90;;;15.40;99.90;;;;;;5066679;28;20121;-52
2022/10/21 09:07:11;;;;;;;14.55;11.57;;;15.50;99.90;;;;;;5065927;28;20068;-54
2022/10/21 09:09:58;;;;;;;15.10;11.60;;;;;;;;;;5062185;28;20094;-56
2022/10/21 09:12:42;;;;;;;14.18;11.63;;;15.70;99.90;;;;;;5066106;28;20036;-51
2022/10/21 09:15:26;;;;;;;15.50;11.93;;;15.80;99.90;;;;;;5064958;28;20086;-53
2022/10/21 09:18:11;;;;;;;17.13;12.07;;;16.00;99.90;;;;;;5051654;28;20045;-51
2022/10/21 09:20:57;;;;;;;17.02;11.57;;;16.10;99.90;;;;;;5065634;28;20722;-51
2022/10/21 09:23:22;;;;;;;16.25;12.05;;;16.20;99.90;;;;;;5054644;28;20048;-52
2022/10/21 09:25:59;;;;;;;14.50;11.20;;;16.30;99.90;;;;;;5070187;28;20525;-52
2022/10/21 09:28:25;;;;;;;15.38;10.88;;;16.30;99.90;;;;;;5060373;28;20129;-49
2022/10/21 09:30:52;;;;;;;14.52;11.00;;;16.30;99.90;;;;;;5074956;28;20044;-52
2022/10/21 09:33:28;;;;;;;14.40;10.80;;;16.40;99.90;;;;;;5075493;28;20395;-51
2022/10/21 09:36:10;;;;;;;13.98;10.88;;;16.30;99.90;;;;;;5075002;28;20093;-51
2022/10/21 09:38:54;;;;;;;11.85;10.43;;;16.30;99.90;;;;;;5073388;28;20048;-50
2022/10/21 09:41:22;;;;;;;11.70;9.43;;;16.20;99.90;;;;;;5075215;28;20052;-53
2022/10/21 09:43:49;;;;;;;13.65;9.73;;;16.30;99.90;;;;;;5073607;28;20053;-51
2022/10/21 09:46:15;;;;;;;14.73;9.00;;;16.20;99.90;;;;;;5074741;28;20045;-52
2022/10/21 09:48:45;;;;;;;12.85;9.63;;;16.30;99.90;;;;;;5070618;28;20482;-51
2022/10/21 09:51:21;;;;;;;14.13;9.57;;;16.30;99.90;;;;;;5075012;28;20049;-49
2022/10/21 09:53:51;;;;;;;11.50;10.05;;;16.40;99.90;;;;;;5071461;28;20051;-53
2022/10/21 09:56:41;;;;;;;14.63;10.15;;;16.40;99.90;;;;;;5075227;28;20474;-52
2022/10/21 09:59:12;;;;;;;13.90;9.93;;;16.50;99.90;;;;;;5066819;28;20397;-50
2022/10/21 10:01:40;;;;;;;12.75;9.80;;;16.50;99.90;;;;;;5074629;28;20470;-53
2022/10/21 10:04:20;;;;;;;13.77;10.55;;;16.50;99.90;;;;;;5075026;28;20037;-51
2022/10/21 10:06:45;;;;;;;15.25;10.35;;;16.60;99.90;;;;;;5074732;28;20055;-52
2022/10/21 10:09:23;;;;;;;13.95;9.57;;;16.50;99.90;;;;;;5070768;28;20457;-52
2022/10/21 10:12:12;;;;;;;12.43;9.82;;;16.60;99.90;;;;;;5074653;28;20047;-50
2022/10/21 10:14:43;;;;;;;11.15;9.20;;;16.60;99.90;;;;;;5074726;28;20040;-52
2022/10/21 10:17:24;;;;;;;14.50;9.60;;;16.70;99.90;;;;;;5074519;28;20048;-53
2022/10/21 10:20:19;;;;;;;10.65;8.68;;;16.70;99.90;;;;;;5073371;28;20498;-53
2022/10/21 10:23:07;;;;;;;13.10;8.63;;;16.70;99.90;;;;;;5056064;28;20239;-50
2022/10/21 10:25:36;;;;;;;10.63;8.50;;;16.70;99.90;;;;;;5074260;28;20100;-50
2022/10/21 10:28:07;;;;;;;12.52;8.35;;;16.70;99.90;;;;;;5074316;28;20045;-51
2022/10/21 10:30:42;;;;;;;11.32;8.20;;;16.70;99.90;;;;;;5071824;28;20094;-51
2022/10/21 10:33:09;;;;;;;11.55;8.30;;;16.70;99.90;;;;;;5072467;28;20076;-53
2022/10/21 10:35:36;;;;;;;10.93;9.03;;;16.70;99.90;;;;;;5072925;28;20091;-53
2022/10/21 10:38:04;;;;;;;12.05;8.77;;;16.70;99.90;;;;;;5064120;28;20056;-52
2022/10/21 10:40:42;;;;;;;14.65;9.30;;;16.70;99.90;;;;;;5059070;28;20119;-54
2022/10/21 10:43:27;;;;;;;12.15;9.00;;;16.80;99.90;;;;;;5067140;28;20136;-52
2022/10/21 10:45:57;;;;;;;11.80;8.52;;;16.90;99.90;;;;;;5072957;28;20045;-55
2022/10/21 10:48:42;;;;;;;12.20;7.75;;;16.90;99.90;;;;;;5058338;28;20522;-49
2022/10/21 10:51:24;;;;;;;11.40;8.82;;;16.80;99.90;;;;;;5071235;28;20098;-53
2022/10/21 10:54:00;;;;;;;13.45;8.38;;;16.90;99.90;;;;;;5070452;28;20182;-52
2022/10/21 10:56:32;;;;;;;9.68;7.78;;;16.90;99.90;;;;;;5055544;28;20037;-52
2022/10/21 10:59:20;;;;;;;12.45;8.35;;;16.90;99.90;;;;;;5058244;28;20513;-53
2022/10/21 11:02:08;;;;;;;11.07;8.23;;;16.90;99.90;;;;;;5068946;28;20057;-53
2022/10/21 11:04:59;;;;;;;14.80;7.60;;;16.90;99.90;;;;;;5064488;28;20076;-53
2022/10/21 11:07:32;;;;;;;12.32;8.45;;;17.00;99.90;;;;;;5064144;28;20494;-53
2022/10/21 11:10:09;;;;;;;13.85;8.70;;;17.10;99.90;;;;;;5071786;28;20745;-50
2022/10/21 11:12:35;;;;;;;10.40;7.63;;;17.20;99.90;;;;;;5071808;28;20131;-52
2022/10/21 11:15:00;;;;;;;11.25;7.38;;;17.20;99.90;;;;;;5072751;28;20127;-52
2022/10/21 11:17:37;;;;;;;9.45;7.40;;;17.10;99.90;;;;;;5068951;28;20087;-50
2022/10/21 11:20:23;;;;;;;10.18;7.95;;;17.20;99.90;;;;;;5069561;28;20041;-49
2022/10/21 11:23:17;;;;;;;12.15;7.05;;;17.10;99.90;;;;;;5058336;28;20045;-52
2022/10/21 11:25:50;;;;;;;10.60;7.40;;;17.20;99.90;;;;;;5070353;28;20062;-51
2022/10/21 11:28:21;;;;;;;9.18;7.28;;;17.10;99.90;;;;;;5069834;28;20049;-52
2022/10/21 11:31:11;;;;;;;10.32;7.00;;;17.20;99.90;;;;;;5070939;28;20033;-54
2022/10/21 11:34:01;;;;;;;11.45;7.85;;;17.10;99.90;;;;;;5068527;28;20494;-52
2022/10/21 11:36:30;;;;;;;9.93;7.13;;;17.10;99.90;;;;;;5072566;28;20063;-52
2022/10/21 11:39:15;;;;;;;11.35;7.35;;;17.00;99.90;;;;;;5063360;28;20579;-53
2022/10/21 11:42:26;;;;;;;9.82;7.43;;;17.00;99.90;;;;;;5065635;28;20555;-53
2022/10/21 11:45:10;;;;;;;10.32;7.75;;;17.10;99.90;;;;;;5065914;28;20099;-53
2022/10/21 11:47:57;;;;;;;13.43;7.40;;;17.20;99.90;;;;;;5065648;28;20048;-55
2022/10/21 11:50:48;;;;;;;8.68;7.00;;;17.10;99.90;;;;;;5069091;28;20446;-53
2022/10/21 11:53:50;;;;;;;12.27;7.47;;;17.20;99.90;;;;;;5062784;28;20133;-52
2022/10/21 11:56:42;;;;;;;12.52;7.10;;;17.20;99.90;;;;;;5066372;28;20044;-50
2022/10/21 11:59:10;;;;;;;10.30;7.30;;;17.10;99.90;;;;;;5063167;28;20052;-50
2022/10/21 12:01:57;;;;;;;10.85;7.13;;;17.10;99.90;;;;;;5065187;28;20079;-55
2022/10/21 12:04:43;;;;;;;9.90;7.20;;;17.10;99.90;;;;;;5061572;28;20044;-53
2022/10/21 12:07:25;;;;;;;9.50;6.97;;;17.10;99.90;;;;;;5065365;28;20108;-53
2022/10/21 12:09:58;;;;;;;12.40;7.25;;;17.20;99.90;;;;;;5062944;28;20584;-53
2022/10/21 12:12:32;;;;;;;9.45;6.65;;;17.20;99.90;;;;;;5061207;28;20056;-53
2022/10/21 12:15:01;;;;;;;9.57;6.78;;;17.20;99.90;;;;;;5063272;28;20046;-53
2022/10/21 12:17:30;;;;;;;14.05;6.72;;;17.20;99.90;;;;;;5062132;28;20633;-53
2022/10/21 12:20:06;;;;;;;14.70;7.18;;;17.20;99.90;;;;;;5063187;28;20602;-54
2022/10/21 12:22:33;;;;;;;8.52;6.75;;;17.30;99.90;;;;;;5064198;28;20052;-54
2022/10/21 12:25:11;;;;;;;10.23;7.37;;;17.30;99.90;;;;;;5061015;28;20056;-52
2022/10/21 12:27:46;;;;;;;8.80;6.50;;;17.30;99.90;;;;;;5071587;28;20666;-49
2022/10/21 12:30:42;;;;;;;8.85;6.20;;;17.30;99.90;;;;;;5063433;28;20622;-54
2022/10/21 12:33:23;;;;;;;15.63;6.43;;;17.30;99.90;;;;;;5063757;28;20044;-54
2022/10/21 12:35:53;;;;;;;9.73;6.38;;;17.30;99.90;;;;;;5063508;28;20295;-52
2022/10/21 12:38:39;;;;;;;11.73;6.32;;;17.30;99.90;;;;;;5056357;28;20048;-54
2022/10/21 12:41:35;;;;;;;14.27;6.28;;;17.20;99.90;;;;;;5043420;28;20044;-52
2022/10/21 12:44:00;;;;;;;9.43;6.57;;;17.20;99.90;;;;;;5065719;28;20137;-52
2022/10/21 12:46:40;;;;;;;11.65;6.43;;;17.20;99.90;;;;;;5069904;28;20067;-52
2022/10/21 12:49:19;;;;;;;11.55;6.20;;;17.20;99.90;;;;;;5066968;28;20045;-53
2022/10/21 12:52:01;;;;;;;8.80;5.72;;;17.20;99.90;;;;;;5064647;28;20560;-53